Kirriemuir, United Kingdom
Current Conditions -  °F | °C
As of 2:20 PM on Tuesday 27 Jan 2015 (Local Time) from EGPN Reporting Station
Scattered Clouds Scattered Clouds  
Wind Chill:   Ceiling: Unl
Heat Index:   Visibility: 6mi
Dew Point:   Wind: 21mph
Humidity: 87%   Direction: 250°WSW
Pressure: 30"   Gusts: NA
Location:  56.67°N, 3°W
Report Text: EGPN 271420Z 25018KT 9999 SCT026 08/06 Q1016
Loading
Personal Weather Stations






























Interactive Weather Map New forecast layout! Learn more

10-Day Weather Forecast

Advertisements
Track Severe Weather on mobile